sensor_id;sensor_type;location;lat;lon;timestamp;pressure;altitude;pressure_sealevel;temperature;humidity
23303;BME280;11820;48.738;9.092;2023-07-20T00:01:06;96199.41;;;20.80;83.46
23303;BME280;11820;48.738;9.092;2023-07-20T00:03:31;96202.13;;;21.00;82.26
23303;BME280;11820;48.738;9.092;2023-07-20T00:05:56;96208.41;;;20.84;81.52
23303;BME280;11820;48.738;9.092;2023-07-20T00:08:22;96204.44;;;20.87;81.87
23303;BME280;11820;48.738;9.092;2023-07-20T00:10:47;96198.84;;;20.68;82.52
23303;BME280;11820;48.738;9.092;2023-07-20T00:13:13;96188.94;;;20.90;81.40
23303;BME280;11820;48.738;9.092;2023-07-20T00:15:38;96198.94;;;20.83;82.52
23303;BME280;11820;48.738;9.092;2023-07-20T00:18:05;96196.84;;;20.85;82.87
23303;BME280;11820;48.738;9.092;2023-07-20T00:20:30;96192.88;;;20.83;82.23
23303;BME280;11820;48.738;9.092;2023-07-20T00:22:57;96201.50;;;20.78;81.73
23303;BME280;11820;48.738;9.092;2023-07-20T00:25:23;96192.75;;;20.53;82.28
23303;BME280;11820;48.738;9.092;2023-07-20T00:27:49;96193.06;;;20.71;81.80
23303;BME280;11820;48.738;9.092;2023-07-20T00:30:14;96193.34;;;20.75;81.38
23303;BME280;11820;48.738;9.092;2023-07-20T00:32:40;96185.41;;;20.65;81.24
23303;BME280;11820;48.738;9.092;2023-07-20T00:35:05;96194.63;;;20.67;81.73
23303;BME280;11820;48.738;9.092;2023-07-20T00:37:31;96188.03;;;20.65;81.75
23303;BME280;11820;48.738;9.092;2023-07-20T00:39:56;96186.25;;;20.75;81.63
23303;BME280;11820;48.738;9.092;2023-07-20T00:42:22;96185.59;;;20.38;81.44
23303;BME280;11820;48.738;9.092;2023-07-20T00:44:47;96192.41;;;20.34;81.60
23303;BME280;11820;48.738;9.092;2023-07-20T00:47:12;96198.91;;;20.27;81.85
23303;BME280;11820;48.738;9.092;2023-07-20T00:49:38;96196.53;;;20.25;81.54
23303;BME280;11820;48.738;9.092;2023-07-20T00:52:06;96193.81;;;20.05;82.02
23303;BME280;11820;48.738;9.092;2023-07-20T00:54:32;96189.63;;;20.09;82.18
23303;BME280;11820;48.738;9.092;2023-07-20T00:57:00;96193.81;;;20.05;82.58
23303;BME280;11820;48.738;9.092;2023-07-20T00:59:26;96192.44;;;19.98;82.79
23303;BME280;11820;48.738;9.092;2023-07-20T01:01:51;96197.41;;;19.99;82.77
23303;BME280;11820;48.738;9.092;2023-07-20T01:04:17;96200.81;;;19.95;82.92
23303;BME280;11820;48.738;9.092;2023-07-20T01:06:49;96199.75;;;19.91;83.99
23303;BME280;11820;48.738;9.092;2023-07-20T01:12:08;96194.75;;;19.94;83.43
23303;BME280;11820;48.738;9.092;2023-07-20T01:14:35;96196.50;;;20.15;83.43
23303;BME280;11820;48.738;9.092;2023-07-20T01:17:01;96197.84;;;20.18;83.29
23303;BME280;11820;48.738;9.092;2023-07-20T01:19:27;96191.78;;;20.22;83.21
23303;BME280;11820;48.738;9.092;2023-07-20T01:32:34;96204.91;;;19.81;84.25
23303;BME280;11820;48.738;9.092;2023-07-20T01:35:02;96198.78;;;20.02;83.75
23303;BME280;11820;48.738;9.092;2023-07-20T01:37:31;96194.41;;;20.17;83.37
23303;BME280;11820;48.738;9.092;2023-07-20T01:39:59;96199.94;;;20.21;83.07
23303;BME280;11820;48.738;9.092;2023-07-20T01:42:26;96200.47;;;20.18;83.38
23303;BME280;11820;48.738;9.092;2023-07-20T01:44:51;96197.34;;;20.26;83.45
23303;BME280;11820;48.738;9.092;2023-07-20T01:47:19;96195.00;;;20.29;82.73
23303;BME280;11820;48.738;9.092;2023-07-20T01:49:45;96191.81;;;20.27;83.31
23303;BME280;11820;48.738;9.092;2023-07-20T01:52:10;96188.94;;;20.29;82.72
23303;BME280;11820;48.738;9.092;2023-07-20T01:54:35;96186.50;;;20.12;83.19
23303;BME280;11820;48.738;9.092;2023-07-20T01:57:01;96193.25;;;20.03;83.98
23303;BME280;11820;48.738;9.092;2023-07-20T01:59:26;96191.41;;;19.67;86.31
23303;BME280;11820;48.738;9.092;2023-07-20T02:01:52;96192.97;;;19.64;87.42
23303;BME280;11820;48.738;9.092;2023-07-20T02:04:17;96197.34;;;19.89;87.52
23303;BME280;11820;48.738;9.092;2023-07-20T02:06:42;96198.72;;;19.97;86.76
23303;BME280;11820;48.738;9.092;2023-07-20T02:09:08;96196.16;;;19.70;87.90
23303;BME280;11820;48.738;9.092;2023-07-20T02:11:33;96203.66;;;19.88;86.47
23303;BME280;11820;48.738;9.092;2023-07-20T02:13:58;96198.59;;;19.82;86.71
23303;BME280;11820;48.738;9.092;2023-07-20T02:16:24;96205.81;;;19.65;87.81
23303;BME280;11820;48.738;9.092;2023-07-20T02:18:49;96199.06;;;19.69;88.11
23303;BME280;11820;48.738;9.092;2023-07-20T02:21:14;96194.19;;;19.51;88.62
23303;BME280;11820;48.738;9.092;2023-07-20T02:23:39;96193.03;;;19.73;88.26
23303;BME280;11820;48.738;9.092;2023-07-20T02:26:05;96193.03;;;19.73;88.80
23303;BME280;11820;48.738;9.092;2023-07-20T02:28:30;96191.44;;;19.72;87.94
23303;BME280;11820;48.738;9.092;2023-07-20T02:30:55;96193.97;;;19.58;89.00
23303;BME280;11820;48.738;9.092;2023-07-20T02:33:21;96197.00;;;19.45;89.36
23303;BME280;11820;48.738;9.092;2023-07-20T02:35:46;96189.47;;;19.53;89.49
23303;BME280;11820;48.738;9.092;2023-07-20T02:38:12;96198.94;;;19.54;89.40
23303;BME280;11820;48.738;9.092;2023-07-20T02:40:37;96201.63;;;19.33;91.09
23303;BME280;11820;48.738;9.092;2023-07-20T02:43:02;96197.03;;;19.50;90.19
23303;BME280;11820;48.738;9.092;2023-07-20T02:45:28;96200.06;;;19.32;90.58
23303;BME280;11820;48.738;9.092;2023-07-20T02:47:53;96203.44;;;19.32;91.49
23303;BME280;11820;48.738;9.092;2023-07-20T02:50:18;96193.31;;;19.41;91.16
23303;BME280;11820;48.738;9.092;2023-07-20T02:52:44;96203.19;;;19.29;91.67
23303;BME280;11820;48.738;9.092;2023-07-20T02:55:09;96211.69;;;19.46;91.32
23303;BME280;11820;48.738;9.092;2023-07-20T02:57:35;96215.09;;;19.41;91.63
23303;BME280;11820;48.738;9.092;2023-07-20T03:00:02;96210.13;;;19.45;91.44
23303;BME280;11820;48.738;9.092;2023-07-20T03:02:29;96218.13;;;19.60;91.36
23303;BME280;11820;48.738;9.092;2023-07-20T03:04:55;96213.25;;;19.42;91.87
23303;BME280;11820;48.738;9.092;2023-07-20T03:07:22;96209.00;;;19.36;92.83
23303;BME280;11820;48.738;9.092;2023-07-20T03:09:47;96207.38;;;19.30;94.30
23303;BME280;11820;48.738;9.092;2023-07-20T03:12:13;96209.28;;;19.13;96.26
23303;BME280;11820;48.738;9.092;2023-07-20T03:14:38;96205.63;;;19.14;97.31
23303;BME280;11820;48.738;9.092;2023-07-20T03:17:03;96209.91;;;19.20;97.69
23303;BME280;11820;48.738;9.092;2023-07-20T03:19:29;96216.09;;;19.14;98.53
23303;BME280;11820;48.738;9.092;2023-07-20T03:21:55;96210.69;;;19.20;99.32
23303;BME280;11820;48.738;9.092;2023-07-20T03:24:20;96208.97;;;19.31;97.12
23303;BME280;11820;48.738;9.092;2023-07-20T03:26:46;96221.78;;;19.27;99.01
23303;BME280;11820;48.738;9.092;2023-07-20T03:29:11;96217.09;;;19.08;100.00
23303;BME280;11820;48.738;9.092;2023-07-20T03:31:37;96223.84;;;18.77;100.00
23303;BME280;11820;48.738;9.092;2023-07-20T03:34:02;96226.09;;;18.90;100.00
23303;BME280;11820;48.738;9.092;2023-07-20T03:36:27;96219.69;;;19.03;99.07
23303;BME280;11820;48.738;9.092;2023-07-20T03:38:52;96224.06;;;18.97;99.43
23303;BME280;11820;48.738;9.092;2023-07-20T03:41:18;96224.38;;;18.79;100.00
23303;BME280;11820;48.738;9.092;2023-07-20T03:43:45;96224.41;;;19.06;98.97
23303;BME280;11820;48.738;9.092;2023-07-20T03:46:10;96219.47;;;19.09;99.96
23303;BME280;11820;48.738;9.092;2023-07-20T03:48:35;96214.53;;;19.13;99.06
23303;BME280;11820;48.738;9.092;2023-07-20T03:51:01;96217.16;;;19.13;99.03
23303;BME280;11820;48.738;9.092;2023-07-20T03:53:26;96212.41;;;19.10;99.24
23303;BME280;11820;48.738;9.092;2023-07-20T03:55:53;96222.88;;;19.10;100.00
23303;BME280;11820;48.738;9.092;2023-07-20T03:58:19;96226.53;;;19.09;100.00
23303;BME280;11820;48.738;9.092;2023-07-20T04:00:49;96228.63;;;19.07;100.00
23303;BME280;11820;48.738;9.092;2023-07-20T04:03:21;96226.41;;;18.99;100.00
23303;BME280;11820;48.738;9.092;2023-07-20T04:05:49;96219.72;;;19.08;100.00
23303;BME280;11820;48.738;9.092;2023-07-20T04:08:15;96226.66;;;19.19;100.00
23303;BME280;11820;48.738;9.092;2023-07-20T04:10:43;96227.31;;;19.09;100.00
23303;BME280;11820;48.738;9.092;2023-07-20T04:13:08;96242.06;;;18.89;100.00
23303;BME280;11820;48.738;9.092;2023-07-20T04:15:34;96237.13;;;18.92;100.00
23303;BME280;11820;48.738;9.092;2023-07-20T04:17:59;96231.25;;;19.07;100.00
23303;BME280;11820;48.738;9.092;2023-07-20T04:20:26;96239.34;;;19.05;100.00
23303;BME280;11820;48.738;9.092;2023-07-20T04:22:51;96238.63;;;19.36;100.00
23303;BME280;11820;48.738;9.092;2023-07-20T04:25:17;96238.44;;;19.43;100.00
23303;BME280;11820;48.738;9.092;2023-07-20T04:27:43;96239.53;;;19.47;100.00
23303;BME280;11820;48.738;9.092;2023-07-20T04:30:10;96233.47;;;19.41;100.00
23303;BME280;11820;48.738;9.092;2023-07-20T04:32:37;96237.97;;;19.51;100.00
23303;BME280;11820;48.738;9.092;2023-07-20T04:35:06;96235.34;;;19.51;100.00
23303;BME280;11820;48.738;9.092;2023-07-20T04:37:32;96238.09;;;19.61;100.00
23303;BME280;11820;48.738;9.092;2023-07-20T04:39:58;96236.03;;;19.67;100.00
23303;BME280;11820;48.738;9.092;2023-07-20T04:42:23;96236.16;;;19.82;100.00
23303;BME280;11820;48.738;9.092;2023-07-20T04:44:49;96235.13;;;19.83;100.00
23303;BME280;11820;48.738;9.092;2023-07-20T04:47:14;96235.31;;;19.77;100.00
23303;BME280;11820;48.738;9.092;2023-07-20T04:49:39;96231.91;;;19.76;100.00
23303;BME280;11820;48.738;9.092;2023-07-20T04:52:05;96234.38;;;19.57;100.00
23303;BME280;11820;48.738;9.092;2023-07-20T04:54:30;96232.38;;;19.68;100.00
23303;BME280;11820;48.738;9.092;2023-07-20T04:56:55;96241.34;;;19.77;100.00
23303;BME280;11820;48.738;9.092;2023-07-20T04:59:21;96236.59;;;19.74;100.00
23303;BME280;11820;48.738;9.092;2023-07-20T05:01:46;96242.16;;;19.78;100.00
23303;BME280;11820;48.738;9.092;2023-07-20T05:04:12;96247.03;;;19.65;100.00
23303;BME280;11820;48.738;9.092;2023-07-20T05:06:37;96246.50;;;19.63;100.00
23303;BME280;11820;48.738;9.092;2023-07-20T05:09:04;96243.00;;;19.83;100.00
23303;BME280;11820;48.738;9.092;2023-07-20T05:11:30;96237.41;;;19.75;100.00
23303;BME280;11820;48.738;9.092;2023-07-20T05:13:55;96238.72;;;19.77;100.00
23303;BME280;11820;48.738;9.092;2023-07-20T05:16:21;96237.28;;;19.91;100.00
23303;BME280;11820;48.738;9.092;2023-07-20T05:18:46;96236.91;;;19.78;100.00
23303;BME280;11820;48.738;9.092;2023-07-20T05:21:11;96244.38;;;19.91;100.00
23303;BME280;11820;48.738;9.092;2023-07-20T05:23:36;96238.88;;;19.97;100.00
23303;BME280;11820;48.738;9.092;2023-07-20T05:26:02;96235.16;;;19.88;100.00
23303;BME280;11820;48.738;9.092;2023-07-20T05:28:28;96237.66;;;19.73;100.00
23303;BME280;11820;48.738;9.092;2023-07-20T05:30:53;96242.34;;;19.71;100.00
23303;BME280;11820;48.738;9.092;2023-07-20T05:33:19;96243.59;;;19.95;100.00
23303;BME280;11820;48.738;9.092;2023-07-20T05:35:45;96238.63;;;19.99;100.00
23303;BME280;11820;48.738;9.092;2023-07-20T05:38:10;96244.41;;;19.96;100.00
23303;BME280;11820;48.738;9.092;2023-07-20T05:40:41;96239.75;;;20.03;100.00
23303;BME280;11820;48.738;9.092;2023-07-20T05:43:06;96236.25;;;19.97;100.00
23303;BME280;11820;48.738;9.092;2023-07-20T05:45:32;96239.66;;;19.93;100.00
23303;BME280;11820;48.738;9.092;2023-07-20T05:47:57;96232.09;;;20.01;100.00
23303;BME280;11820;48.738;9.092;2023-07-20T05:50:23;96234.50;;;20.03;100.00
23303;BME280;11820;48.738;9.092;2023-07-20T05:52:48;96234.53;;;20.13;100.00
23303;BME280;11820;48.738;9.092;2023-07-20T05:55:14;96233.81;;;20.22;100.00
23303;BME280;11820;48.738;9.092;2023-07-20T05:57:39;96236.25;;;19.97;100.00
23303;BME280;11820;48.738;9.092;2023-07-20T06:00:07;96237.41;;;20.06;100.00
23303;BME280;11820;48.738;9.092;2023-07-20T06:02:33;96238.63;;;19.99;100.00
23303;BME280;11820;48.738;9.092;2023-07-20T06:04:58;96240.59;;;20.08;100.00
23303;BME280;11820;48.738;9.092;2023-07-20T06:07:24;96240.41;;;20.25;100.00
23303;BME280;11820;48.738;9.092;2023-07-20T06:09:49;96250.25;;;20.49;100.00
23303;BME280;11820;48.738;9.092;2023-07-20T06:12:15;96247.03;;;20.32;100.00
23303;BME280;11820;48.738;9.092;2023-07-20T06:14:40;96249.19;;;20.45;100.00
23303;BME280;11820;48.738;9.092;2023-07-20T06:17:05;96238.91;;;20.39;100.00
23303;BME280;11820;48.738;9.092;2023-07-20T06:19:31;96243.91;;;20.35;100.00
23303;BME280;11820;48.738;9.092;2023-07-20T06:21:56;96249.66;;;20.32;100.00
23303;BME280;11820;48.738;9.092;2023-07-20T06:24:21;96246.84;;;20.49;100.00
23303;BME280;11820;48.738;9.092;2023-07-20T06:26:47;96243.19;;;20.55;100.00
23303;BME280;11820;48.738;9.092;2023-07-20T06:29:12;96247.19;;;20.62;100.00
23303;BME280;11820;48.738;9.092;2023-07-20T06:31:37;96250.28;;;20.54;100.00
23303;BME280;11820;48.738;9.092;2023-07-20T06:34:03;96244.44;;;20.42;100.00
23303;BME280;11820;48.738;9.092;2023-07-20T06:36:28;96248.63;;;20.33;100.00
23303;BME280;11820;48.738;9.092;2023-07-20T06:38:55;96246.66;;;20.60;100.00
23303;BME280;11820;48.738;9.092;2023-07-20T06:41:20;96251.31;;;20.53;100.00
23303;BME280;11820;48.738;9.092;2023-07-20T06:43:46;96251.50;;;20.37;100.00
23303;BME280;11820;48.738;9.092;2023-07-20T06:46:12;96251.72;;;20.77;100.00
23303;BME280;11820;48.738;9.092;2023-07-20T06:48:37;96245.63;;;20.66;100.00
23303;BME280;11820;48.738;9.092;2023-07-20T06:51:03;96244.78;;;20.56;100.00
23303;BME280;11820;48.738;9.092;2023-07-20T06:53:29;96247.22;;;20.72;100.00
23303;BME280;11820;48.738;9.092;2023-07-20T06:55:54;96253.53;;;20.71;100.00
23303;BME280;11820;48.738;9.092;2023-07-20T06:58:22;96249.16;;;20.35;100.00
23303;BME280;11820;48.738;9.092;2023-07-20T07:00:48;96245.09;;;20.69;100.00
23303;BME280;11820;48.738;9.092;2023-07-20T07:03:13;96247.13;;;20.52;100.00
23303;BME280;11820;48.738;9.092;2023-07-20T07:05:38;96247.53;;;20.29;100.00
23303;BME280;11820;48.738;9.092;2023-07-20T07:08:04;96245.53;;;20.46;100.00
23303;BME280;11820;48.738;9.092;2023-07-20T07:10:30;96244.75;;;20.46;100.00
23303;BME280;11820;48.738;9.092;2023-07-20T07:12:55;96244.69;;;20.41;100.00
23303;BME280;11820;48.738;9.092;2023-07-20T07:15:21;96241.63;;;20.54;100.00
23303;BME280;11820;48.738;9.092;2023-07-20T07:17:46;96239.25;;;20.06;100.00
23303;BME280;11820;48.738;9.092;2023-07-20T07:20:11;96234.75;;;20.43;100.00
23303;BME280;11820;48.738;9.092;2023-07-20T07:22:37;96244.13;;;20.34;100.00
23303;BME280;11820;48.738;9.092;2023-07-20T07:25:03;96237.94;;;20.08;100.00
23303;BME280;11820;48.738;9.092;2023-07-20T07:27:29;96234.88;;;20.21;100.00
23303;BME280;11820;48.738;9.092;2023-07-20T07:29:54;96222.91;;;20.40;100.00
23303;BME280;11820;48.738;9.092;2023-07-20T07:32:20;96236.03;;;20.40;100.00
23303;BME280;11820;48.738;9.092;2023-07-20T07:34:45;96236.25;;;19.97;100.00
23303;BME280;11820;48.738;9.092;2023-07-20T07:37:14;96233.56;;;20.19;100.00
23303;BME280;11820;48.738;9.092;2023-07-20T07:39:39;96217.94;;;20.49;100.00
23303;BME280;11820;48.738;9.092;2023-07-20T07:42:05;96232.91;;;20.48;100.00
23303;BME280;11820;48.738;9.092;2023-07-20T07:44:30;96222.97;;;20.55;100.00
23303;BME280;11820;48.738;9.092;2023-07-20T07:46:56;96237.44;;;20.63;100.00
23303;BME280;11820;48.738;9.092;2023-07-20T07:49:21;96232.72;;;20.60;100.00
23303;BME280;11820;48.738;9.092;2023-07-20T07:51:46;96223.56;;;20.77;100.00
23303;BME280;11820;48.738;9.092;2023-07-20T07:54:12;96223.91;;;20.86;100.00
23303;BME280;11820;48.738;9.092;2023-07-20T07:56:37;96232.56;;;20.81;100.00
23303;BME280;11820;48.738;9.092;2023-07-20T07:59:02;96230.50;;;20.88;100.00
23303;BME280;11820;48.738;9.092;2023-07-20T08:01:28;96232.00;;;20.79;100.00
23303;BME280;11820;48.738;9.092;2023-07-20T08:03:53;96220.28;;;21.02;100.00
23303;BME280;11820;48.738;9.092;2023-07-20T08:06:18;96213.75;;;21.24;100.00
23303;BME280;11820;48.738;9.092;2023-07-20T08:08:44;96221.63;;;21.19;98.93
23303;BME280;11820;48.738;9.092;2023-07-20T08:11:09;96221.13;;;21.32;99.21
23303;BME280;11820;48.738;9.092;2023-07-20T08:13:35;96225.31;;;21.23;96.54
23303;BME280;11820;48.738;9.092;2023-07-20T08:16:01;96230.50;;;20.93;98.31
23303;BME280;11820;48.738;9.092;2023-07-20T08:18:27;96228.47;;;21.15;96.12
23303;BME280;11820;48.738;9.092;2023-07-20T08:20:52;96216.41;;;21.39;96.79
23303;BME280;11820;48.738;9.092;2023-07-20T08:23:19;96217.47;;;21.58;94.90
23303;BME280;11820;48.738;9.092;2023-07-20T08:25:45;96211.19;;;21.69;92.59
23303;BME280;11820;48.738;9.092;2023-07-20T08:28:11;96207.22;;;21.86;90.66
23303;BME280;11820;48.738;9.092;2023-07-20T08:30:44;96201.06;;;22.31;90.28
23303;BME280;11820;48.738;9.092;2023-07-20T08:33:13;96209.00;;;22.21;87.62
23303;BME280;11820;48.738;9.092;2023-07-20T08:35:38;96205.09;;;21.98;87.49
23303;BME280;11820;48.738;9.092;2023-07-20T08:38:04;96221.16;;;22.02;88.78
23303;BME280;11820;48.738;9.092;2023-07-20T08:40:34;96218.28;;;21.78;88.71
23303;BME280;11820;48.738;9.092;2023-07-20T08:43:04;96222.75;;;21.68;90.38
23303;BME280;11820;48.738;9.092;2023-07-20T08:45:30;96219.88;;;21.79;90.84
23303;BME280;11820;48.738;9.092;2023-07-20T08:48:01;96222.22;;;22.01;91.61
23303;BME280;11820;48.738;9.092;2023-07-20T08:50:30;96219.06;;;21.89;90.29
23303;BME280;11820;48.738;9.092;2023-07-20T08:52:57;96213.00;;;22.08;89.58
23303;BME280;11820;48.738;9.092;2023-07-20T08:55:24;96209.56;;;22.08;90.85
23303;BME280;11820;48.738;9.092;2023-07-20T08:57:57;96217.94;;;22.45;90.90
23303;BME280;11820;48.738;9.092;2023-07-20T09:00:23;96208.47;;;22.44;89.28
23303;BME280;11820;48.738;9.092;2023-07-20T09:02:50;96208.38;;;22.69;89.88
23303;BME280;11820;48.738;9.092;2023-07-20T09:05:17;96208.47;;;22.44;86.65
23303;BME280;11820;48.738;9.092;2023-07-20T09:07:43;96198.38;;;22.61;83.93
23303;BME280;11820;48.738;9.092;2023-07-20T09:10:08;96206.09;;;23.01;85.15
23303;BME280;11820;48.738;9.092;2023-07-20T09:12:41;96206.25;;;22.71;77.75
23303;BME280;11820;48.738;9.092;2023-07-20T09:15:08;96208.41;;;22.54;78.66
23303;BME280;11820;48.738;9.092;2023-07-20T09:17:34;96201.84;;;22.36;80.03
23303;BME280;11820;48.738;9.092;2023-07-20T09:20:06;96203.13;;;22.59;80.07
23303;BME280;11820;48.738;9.092;2023-07-20T09:22:35;96203.13;;;22.59;81.43
23303;BME280;11820;48.738;9.092;2023-07-20T09:25:06;96197.84;;;22.59;80.65
23303;BME280;11820;48.738;9.092;2023-07-20T09:27:35;96206.28;;;22.56;79.98
23303;BME280;11820;48.738;9.092;2023-07-20T09:30:01;96199.00;;;22.38;80.75
23303;BME280;11820;48.738;9.092;2023-07-20T09:32:27;96209.50;;;22.43;80.71
23303;BME280;11820;48.738;9.092;2023-07-20T09:34:52;96206.13;;;22.22;80.94
23303;BME280;11820;48.738;9.092;2023-07-20T09:37:21;96201.09;;;22.41;81.18
23303;BME280;11820;48.738;9.092;2023-07-20T09:39:51;96207.94;;;22.27;79.05
23303;BME280;11820;48.738;9.092;2023-07-20T09:42:17;96196.09;;;22.19;79.76
23303;BME280;11820;48.738;9.092;2023-07-20T09:44:43;96200.97;;;22.71;79.26
23303;BME280;11820;48.738;9.092;2023-07-20T09:47:09;96202.19;;;22.88;79.27
23303;BME280;11820;48.738;9.092;2023-07-20T09:49:40;96194.97;;;23.08;78.11
23303;BME280;11820;48.738;9.092;2023-07-20T09:52:08;96194.13;;;23.56;79.05
23303;BME280;11820;48.738;9.092;2023-07-20T09:54:39;96201.00;;;23.57;78.38
23303;BME280;11820;48.738;9.092;2023-07-20T09:57:08;96193.03;;;23.29;77.23
23303;BME280;11820;48.738;9.092;2023-07-20T09:59:37;96191.47;;;23.61;78.28
23303;BME280;11820;48.738;9.092;2023-07-20T10:02:11;96189.78;;;23.37;78.10
23303;BME280;11820;48.738;9.092;2023-07-20T10:04:39;96194.22;;;23.46;76.92
23303;BME280;11820;48.738;9.092;2023-07-20T10:07:10;96193.91;;;23.15;74.67
23303;BME280;11820;48.738;9.092;2023-07-20T10:09:39;96188.84;;;23.23;75.40
23303;BME280;11820;48.738;9.092;2023-07-20T10:12:07;96188.16;;;22.98;74.80
23303;BME280;11820;48.738;9.092;2023-07-20T10:14:35;96182.22;;;23.25;75.71
23303;BME280;11820;48.738;9.092;2023-07-20T10:17:05;96182.25;;;23.59;75.03
23303;BME280;11820;48.738;9.092;2023-07-20T10:19:46;96180.34;;;23.64;72.01
23303;BME280;11820;48.738;9.092;2023-07-20T10:22:14;96190.22;;;23.54;72.80
23303;BME280;11820;48.738;9.092;2023-07-20T10:24:44;96178.44;;;22.98;72.03
23303;BME280;11820;48.738;9.092;2023-07-20T10:27:09;96168.03;;;23.55;73.13
23303;BME280;11820;48.738;9.092;2023-07-20T10:29:35;96166.03;;;23.70;74.17
23303;BME280;11820;48.738;9.092;2023-07-20T10:32:02;96167.78;;;23.85;73.06
23303;BME280;11820;48.738;9.092;2023-07-20T10:34:27;96166.34;;;23.97;73.74
23303;BME280;11820;48.738;9.092;2023-07-20T10:36:53;96167.28;;;23.83;72.19
23303;BME280;11820;48.738;9.092;2023-07-20T10:39:27;96162.22;;;23.53;70.03
23303;BME280;11820;48.738;9.092;2023-07-20T10:42:09;96165.94;;;23.52;71.75
23303;BME280;11820;48.738;9.092;2023-07-20T10:44:39;96161.78;;;22.98;68.54
23303;BME280;11820;48.738;9.092;2023-07-20T10:47:12;96169.38;;;23.14;70.13
23303;BME280;11820;48.738;9.092;2023-07-20T10:50:00;96158.91;;;23.37;70.59
23303;BME280;11820;48.738;9.092;2023-07-20T10:52:25;96164.88;;;23.48;67.16
23303;BME280;11820;48.738;9.092;2023-07-20T10:54:51;96156.78;;;23.68;66.78
23303;BME280;11820;48.738;9.092;2023-07-20T10:57:30;96148.16;;;23.91;65.61
23303;BME280;11820;48.738;9.092;2023-07-20T11:00:13;96142.72;;;24.29;64.49
23303;BME280;11820;48.738;9.092;2023-07-20T11:02:49;96147.56;;;24.22;67.58
23303;BME280;11820;48.738;9.092;2023-07-20T11:05:37;96152.81;;;23.99;64.74
23303;BME280;11820;48.738;9.092;2023-07-20T11:08:05;96149.09;;;24.28;68.89
23303;BME280;11820;48.738;9.092;2023-07-20T11:10:30;96135.66;;;24.25;66.73
23303;BME280;11820;48.738;9.092;2023-07-20T11:13:18;96143.69;;;24.15;63.32
23303;BME280;11820;48.738;9.092;2023-07-20T11:16:04;96149.84;;;23.82;62.27
23303;BME280;11820;48.738;9.092;2023-07-20T11:18:30;96145.66;;;23.76;63.30
23303;BME280;11820;48.738;9.092;2023-07-20T11:20:57;96141.63;;;23.83;63.75
23303;BME280;11820;48.738;9.092;2023-07-20T11:23:23;96149.00;;;23.86;65.10
23303;BME280;11820;48.738;9.092;2023-07-20T11:25:50;96155.72;;;24.02;61.06
23303;BME280;11820;48.738;9.092;2023-07-20T11:28:16;96145.38;;;24.29;62.35
23303;BME280;11820;48.738;9.092;2023-07-20T11:30:41;96135.13;;;24.70;66.05
23303;BME280;11820;48.738;9.092;2023-07-20T11:33:09;96139.31;;;24.71;62.87
23303;BME280;11820;48.738;9.092;2023-07-20T11:35:41;96121.47;;;24.81;64.81
23303;BME280;11820;48.738;9.092;2023-07-20T11:38:07;96116.75;;;24.78;66.04
23303;BME280;11820;48.738;9.092;2023-07-20T11:40:33;96128.19;;;24.50;60.91
23303;BME280;11820;48.738;9.092;2023-07-20T11:42:58;96126.59;;;24.54;59.77
23303;BME280;11820;48.738;9.092;2023-07-20T11:45:25;96125.50;;;24.55;58.32
23303;BME280;11820;48.738;9.092;2023-07-20T11:47:50;96120.22;;;24.55;58.69
23303;BME280;11820;48.738;9.092;2023-07-20T11:50:15;96117.16;;;24.85;58.56
23303;BME280;11820;48.738;9.092;2023-07-20T11:52:41;96116.03;;;24.49;60.00
23303;BME280;11820;48.738;9.092;2023-07-20T11:55:07;96121.19;;;24.17;57.66
23303;BME280;11820;48.738;9.092;2023-07-20T11:57:33;96110.88;;;24.63;60.51
23303;BME280;11820;48.738;9.092;2023-07-20T12:00:02;96115.41;;;25.17;59.99
23303;BME280;11820;48.738;9.092;2023-07-20T12:02:34;96106.28;;;25.42;60.58
23303;BME280;11820;48.738;9.092;2023-07-20T12:04:59;96112.81;;;25.12;56.14
23303;BME280;11820;48.738;9.092;2023-07-20T12:07:28;96110.44;;;24.92;60.82
23303;BME280;11820;48.738;9.092;2023-07-20T12:10:12;96110.50;;;25.24;57.23
23303;BME280;11820;48.738;9.092;2023-07-20T12:12:39;96107.19;;;25.19;59.18
23303;BME280;11820;48.738;9.092;2023-07-20T12:17:45;96109.19;;;24.90;55.99
23303;BME280;11820;48.738;9.092;2023-07-20T12:20:11;96099.72;;;25.02;55.48
23303;BME280;11820;48.738;9.092;2023-07-20T12:22:40;96096.84;;;24.99;58.63
23303;BME280;11820;48.738;9.092;2023-07-20T12:25:06;96086.81;;;25.33;57.19
23303;BME280;11820;48.738;9.092;2023-07-20T12:27:33;96081.56;;;25.46;56.46
23303;BME280;11820;48.738;9.092;2023-07-20T12:30:00;96090.31;;;25.47;54.82
23303;BME280;11820;48.738;9.092;2023-07-20T12:32:25;96090.13;;;25.57;56.34
23303;BME280;11820;48.738;9.092;2023-07-20T12:34:50;96075.91;;;25.80;57.53
23303;BME280;11820;48.738;9.092;2023-07-20T12:37:18;96069.06;;;25.79;58.03
23303;BME280;11820;48.738;9.092;2023-07-20T12:39:43;96082.06;;;26.21;55.32
23303;BME280;11820;48.738;9.092;2023-07-20T12:42:12;96074.19;;;26.43;52.98
23303;BME280;11820;48.738;9.092;2023-07-20T12:44:37;96068.47;;;26.49;54.54
23303;BME280;11820;48.738;9.092;2023-07-20T12:47:02;96079.31;;;26.26;52.76
23303;BME280;11820;48.738;9.092;2023-07-20T12:49:28;96064.88;;;26.05;56.33
23303;BME280;11820;48.738;9.092;2023-07-20T12:51:53;96064.97;;;26.13;53.71
23303;BME280;11820;48.738;9.092;2023-07-20T12:54:18;96069.69;;;26.16;55.55
23303;BME280;11820;48.738;9.092;2023-07-20T12:56:44;96067.09;;;26.38;55.99
23303;BME280;11820;48.738;9.092;2023-07-20T12:59:09;96065.56;;;25.97;57.98
23303;BME280;11820;48.738;9.092;2023-07-20T13:01:34;96056.13;;;26.18;55.55
23303;BME280;11820;48.738;9.092;2023-07-20T13:04:00;96050.16;;;25.99;57.07
23303;BME280;11820;48.738;9.092;2023-07-20T13:06:25;96053.84;;;25.71;57.06
23303;BME280;11820;48.738;9.092;2023-07-20T13:08:50;96060.59;;;25.77;54.39
23303;BME280;11820;48.738;9.092;2023-07-20T13:11:20;96046.09;;;26.15;55.25